sensor_id;sensor_type;location;lat;lon;timestamp;pressure;altitude;pressure_sealevel;temperature;humidity
69127;BME280;56688;50.234;19.292;2022-11-12T00:00:53;100114.55;;;6.34;87.83
69127;BME280;56688;50.234;19.292;2022-11-12T00:03:36;100114.02;;;6.36;87.30
69127;BME280;56688;50.234;19.292;2022-11-12T00:06:19;100118.92;;;6.37;86.66
69127;BME280;56688;50.234;19.292;2022-11-12T00:09:01;100118.83;;;6.38;86.75
69127;BME280;56688;50.234;19.292;2022-11-12T00:11:43;100121.66;;;6.40;86.28
69127;BME280;56688;50.234;19.292;2022-11-12T00:14:26;100123.02;;;6.44;86.14
69127;BME280;56688;50.234;19.292;2022-11-12T00:17:08;100115.06;;;6.43;85.41
69127;BME280;56688;50.234;19.292;2022-11-12T00:19:50;100109.29;;;6.42;84.45
69127;BME280;56688;50.234;19.292;2022-11-12T00:22:32;100106.48;;;6.37;84.16
69127;BME280;56688;50.234;19.292;2022-11-12T00:25:15;100106.61;;;6.32;83.52
69127;BME280;56688;50.234;19.292;2022-11-12T00:28:03;100103.74;;;6.23;83.17
69127;BME280;56688;50.234;19.292;2022-11-12T00:30:46;100110.14;;;6.19;84.43
69127;BME280;56688;50.234;19.292;2022-11-12T00:33:28;100109.20;;;6.19;85.14
69127;BME280;56688;50.234;19.292;2022-11-12T00:36:11;100108.26;;;6.18;84.96
69127;BME280;56688;50.234;19.292;2022-11-12T00:38:53;100107.34;;;6.18;84.98
69127;BME280;56688;50.234;19.292;2022-11-12T00:41:35;100099.93;;;6.20;85.29
69127;BME280;56688;50.234;19.292;2022-11-12T00:44:18;100096.79;;;6.22;86.04
69127;BME280;56688;50.234;19.292;2022-11-12T00:47:00;100098.18;;;6.22;85.54
69127;BME280;56688;50.234;19.292;2022-11-12T00:49:42;100090.68;;;6.21;85.29
69127;BME280;56688;50.234;19.292;2022-11-12T00:52:24;100088.15;;;6.19;85.35
69127;BME280;56688;50.234;19.292;2022-11-12T00:55:07;100090.05;;;6.18;85.07
69127;BME280;56688;50.234;19.292;2022-11-12T00:57:49;100095.19;;;6.16;85.38
69127;BME280;56688;50.234;19.292;2022-11-12T01:00:31;100101.30;;;6.14;85.23
69127;BME280;56688;50.234;19.292;2022-11-12T01:03:14;100100.80;;;6.16;85.31
69127;BME280;56688;50.234;19.292;2022-11-12T01:06:02;100107.80;;;6.17;84.97
69127;BME280;56688;50.234;19.292;2022-11-12T01:08:45;100102.86;;;6.15;84.40
69127;BME280;56688;50.234;19.292;2022-11-12T01:11:28;100107.48;;;6.12;83.46
69127;BME280;56688;50.234;19.292;2022-11-12T01:14:11;100107.55;;;6.06;82.23
69127;BME280;56688;50.234;19.292;2022-11-12T01:16:53;100108.25;;;5.95;80.63
69127;BME280;56688;50.234;19.292;2022-11-12T01:19:35;100101.38;;;5.79;79.36
69127;BME280;56688;50.234;19.292;2022-11-12T01:22:17;100105.52;;;5.64;78.34
69127;BME280;56688;50.234;19.292;2022-11-12T01:25:00;100101.16;;;5.49;77.68
69127;BME280;56688;50.234;19.292;2022-11-12T01:27:42;100103.70;;;5.37;77.25
69127;BME280;56688;50.234;19.292;2022-11-12T01:30:24;100101.93;;;5.23;77.22
69127;BME280;56688;50.234;19.292;2022-11-12T01:33:07;100103.66;;;5.12;76.97
69127;BME280;56688;50.234;19.292;2022-11-12T01:35:49;100102.30;;;4.99;76.78
69127;BME280;56688;50.234;19.292;2022-11-12T01:38:34;100107.30;;;4.84;76.26
69127;BME280;56688;50.234;19.292;2022-11-12T01:41:20;100115.39;;;4.70;76.38
69127;BME280;56688;50.234;19.292;2022-11-12T01:47:05;100122.20;;;4.46;76.82
69127;BME280;56688;50.234;19.292;2022-11-12T01:49:55;100121.52;;;4.36;76.96
69127;BME280;56688;50.234;19.292;2022-11-12T01:52:47;100122.66;;;4.25;76.91
69127;BME280;56688;50.234;19.292;2022-11-12T01:55:33;100119.42;;;4.14;76.91
69127;BME280;56688;50.234;19.292;2022-11-12T01:58:22;100118.72;;;4.03;76.99
69127;BME280;56688;50.234;19.292;2022-11-12T02:01:06;100117.33;;;3.88;76.96
69127;BME280;56688;50.234;19.292;2022-11-12T02:03:48;100116.05;;;3.76;77.42
69127;BME280;56688;50.234;19.292;2022-11-12T02:06:31;100115.40;;;3.65;77.38
69127;BME280;56688;50.234;19.292;2022-11-12T02:09:15;100119.36;;;3.56;77.11
69127;BME280;56688;50.234;19.292;2022-11-12T02:11:58;100119.81;;;3.47;77.07
69127;BME280;56688;50.234;19.292;2022-11-12T02:14:41;100119.44;;;3.40;77.20
69127;BME280;56688;50.234;19.292;2022-11-12T02:17:23;100118.74;;;3.31;77.29
69127;BME280;56688;50.234;19.292;2022-11-12T02:20:10;100117.44;;;3.22;77.32
69127;BME280;56688;50.234;19.292;2022-11-12T02:22:52;100115.73;;;3.11;77.32
69127;BME280;56688;50.234;19.292;2022-11-12T02:25:35;100117.88;;;3.02;77.39
69127;BME280;56688;50.234;19.292;2022-11-12T02:28:17;100116.84;;;2.94;77.63
69127;BME280;56688;50.234;19.292;2022-11-12T02:30:59;100115.49;;;2.88;77.79
69127;BME280;56688;50.234;19.292;2022-11-12T02:33:41;100117.31;;;2.84;78.06
69127;BME280;56688;50.234;19.292;2022-11-12T02:36:24;100114.55;;;2.80;78.21
69127;BME280;56688;50.234;19.292;2022-11-12T02:39:07;100117.48;;;2.75;78.55
69127;BME280;56688;50.234;19.292;2022-11-12T02:41:49;100121.48;;;2.71;78.54
69127;BME280;56688;50.234;19.292;2022-11-12T02:44:31;100121.63;;;2.63;78.80
69127;BME280;56688;50.234;19.292;2022-11-12T02:47:14;100123.36;;;2.58;78.74
69127;BME280;56688;50.234;19.292;2022-11-12T02:49:56;100118.89;;;2.54;79.00
69127;BME280;56688;50.234;19.292;2022-11-12T02:52:38;100117.53;;;2.54;79.23
69127;BME280;56688;50.234;19.292;2022-11-12T02:55:21;100120.35;;;2.53;79.01
69127;BME280;56688;50.234;19.292;2022-11-12T02:58:03;100114.80;;;2.52;78.81
69127;BME280;56688;50.234;19.292;2022-11-12T03:00:46;100115.48;;;2.49;78.86
69127;BME280;56688;50.234;19.292;2022-11-12T03:03:28;100112.98;;;2.44;78.91
69127;BME280;56688;50.234;19.292;2022-11-12T03:06:10;100116.44;;;2.40;78.88
69127;BME280;56688;50.234;19.292;2022-11-12T03:08:52;100117.80;;;2.35;78.65
69127;BME280;56688;50.234;19.292;2022-11-12T03:11:35;100119.77;;;2.29;78.36
69127;BME280;56688;50.234;19.292;2022-11-12T03:14:17;100126.36;;;2.25;78.49
69127;BME280;56688;50.234;19.292;2022-11-12T03:17:00;100133.93;;;2.21;78.37
69127;BME280;56688;50.234;19.292;2022-11-12T03:19:41;100133.52;;;2.17;78.14
69127;BME280;56688;50.234;19.292;2022-11-12T03:22:23;100137.22;;;2.11;77.84
69127;BME280;56688;50.234;19.292;2022-11-12T03:25:07;100133.23;;;2.05;77.78
69127;BME280;56688;50.234;19.292;2022-11-12T03:28:07;100129.77;;;1.98;78.09
69127;BME280;56688;50.234;19.292;2022-11-12T03:30:50;100127.07;;;1.88;78.01
69127;BME280;56688;50.234;19.292;2022-11-12T03:33:32;100129.02;;;1.82;78.48
69127;BME280;56688;50.234;19.292;2022-11-12T03:36:14;100125.58;;;1.78;78.67
69127;BME280;56688;50.234;19.292;2022-11-12T03:38:56;100125.38;;;1.75;78.44
69127;BME280;56688;50.234;19.292;2022-11-12T03:41:39;100122.61;;;1.72;78.31
69127;BME280;56688;50.234;19.292;2022-11-12T03:44:21;100123.85;;;1.68;78.44
69127;BME280;56688;50.234;19.292;2022-11-12T03:47:03;100119.63;;;1.62;77.87
69127;BME280;56688;50.234;19.292;2022-11-12T03:49:46;100117.50;;;1.57;78.04
69127;BME280;56688;50.234;19.292;2022-11-12T03:52:28;100115.57;;;1.51;78.17
69127;BME280;56688;50.234;19.292;2022-11-12T03:55:11;100113.34;;;1.45;78.36
69127;BME280;56688;50.234;19.292;2022-11-12T03:57:55;100112.94;;;1.40;78.80
69127;BME280;56688;50.234;19.292;2022-11-12T04:00:37;100110.52;;;1.36;78.49
69127;BME280;56688;50.234;19.292;2022-11-12T04:03:19;100107.45;;;1.34;78.76
69127;BME280;56688;50.234;19.292;2022-11-12T04:06:02;100104.88;;;1.33;78.63
69127;BME280;56688;50.234;19.292;2022-11-12T04:08:59;100105.87;;;1.31;78.33
69127;BME280;56688;50.234;19.292;2022-11-12T04:11:42;100107.11;;;1.28;78.11
69127;BME280;56688;50.234;19.292;2022-11-12T04:14:24;100111.47;;;1.23;78.12
69127;BME280;56688;50.234;19.292;2022-11-12T04:17:06;100109.86;;;1.18;78.15
69127;BME280;56688;50.234;19.292;2022-11-12T04:20:04;100111.04;;;1.09;77.97
69127;BME280;56688;50.234;19.292;2022-11-12T04:23:02;100111.50;;;1.01;78.42
69127;BME280;56688;50.234;19.292;2022-11-12T04:25:44;100111.66;;;0.98;78.46
69127;BME280;56688;50.234;19.292;2022-11-12T04:28:42;100116.02;;;0.99;79.36
69127;BME280;56688;50.234;19.292;2022-11-12T04:31:44;100111.95;;;0.99;79.46
69127;BME280;56688;50.234;19.292;2022-11-12T04:34:27;100112.31;;;0.99;79.11
69127;BME280;56688;50.234;19.292;2022-11-12T04:37:10;100112.20;;;0.98;79.52
69127;BME280;56688;50.234;19.292;2022-11-12T04:39:52;100111.43;;;0.96;79.51
69127;BME280;56688;50.234;19.292;2022-11-12T04:42:35;100104.84;;;0.92;79.42
69127;BME280;56688;50.234;19.292;2022-11-12T04:45:33;100103.80;;;0.89;79.57
69127;BME280;56688;50.234;19.292;2022-11-12T04:48:15;100106.04;;;0.86;79.28
69127;BME280;56688;50.234;19.292;2022-11-12T04:51:01;100105.30;;;0.87;79.38
69127;BME280;56688;50.234;19.292;2022-11-12T04:53:43;100105.64;;;0.87;79.12
69127;BME280;56688;50.234;19.292;2022-11-12T04:56:26;100098.17;;;0.86;78.90
69127;BME280;56688;50.234;19.292;2022-11-12T04:59:08;100094.00;;;0.82;78.54
69127;BME280;56688;50.234;19.292;2022-11-12T05:01:50;100097.10;;;0.77;78.61
69127;BME280;56688;50.234;19.292;2022-11-12T05:04:32;100102.52;;;0.71;78.26
69127;BME280;56688;50.234;19.292;2022-11-12T05:07:15;100105.94;;;0.64;78.44
69127;BME280;56688;50.234;19.292;2022-11-12T05:09:58;100102.40;;;0.58;78.76
69127;BME280;56688;50.234;19.292;2022-11-12T05:12:41;100100.97;;;0.55;79.13
69127;BME280;56688;50.234;19.292;2022-11-12T05:15:24;100097.52;;;0.54;79.39
69127;BME280;56688;50.234;19.292;2022-11-12T05:18:06;100102.91;;;0.54;79.31
69127;BME280;56688;50.234;19.292;2022-11-12T05:20:51;100107.52;;;0.38;79.28
69127;BME280;56688;50.234;19.292;2022-11-12T05:23:34;100113.38;;;0.14;79.62
69127;BME280;56688;50.234;19.292;2022-11-12T05:26:16;100107.02;;;-0.11;80.27
69127;BME280;56688;50.234;19.292;2022-11-12T05:28:58;100104.86;;;-0.26;81.37
69127;BME280;56688;50.234;19.292;2022-11-12T05:31:41;100103.81;;;-0.33;81.83
69127;BME280;56688;50.234;19.292;2022-11-12T05:34:23;100108.09;;;-0.37;82.13
69127;BME280;56688;50.234;19.292;2022-11-12T05:37:07;100108.36;;;-0.33;82.71
69127;BME280;56688;50.234;19.292;2022-11-12T05:39:49;100111.38;;;-0.34;82.74
69127;BME280;56688;50.234;19.292;2022-11-12T05:42:31;100112.02;;;-0.43;82.44
69127;BME280;56688;50.234;19.292;2022-11-12T05:45:14;100122.06;;;-0.50;82.62
69127;BME280;56688;50.234;19.292;2022-11-12T05:47:56;100125.28;;;-0.55;83.05
69127;BME280;56688;50.234;19.292;2022-11-12T05:50:39;100127.66;;;-0.58;82.82
69127;BME280;56688;50.234;19.292;2022-11-12T05:53:41;100127.63;;;-0.57;83.35
69127;BME280;56688;50.234;19.292;2022-11-12T05:56:24;100128.11;;;-0.52;83.26
69127;BME280;56688;50.234;19.292;2022-11-12T05:59:08;100132.13;;;-0.49;83.14
69127;BME280;56688;50.234;19.292;2022-11-12T06:01:50;100134.61;;;-0.49;82.98
69127;BME280;56688;50.234;19.292;2022-11-12T06:04:33;100134.02;;;-0.52;82.99
69127;BME280;56688;50.234;19.292;2022-11-12T06:07:15;100138.42;;;-0.45;83.29
69127;BME280;56688;50.234;19.292;2022-11-12T06:09:57;100138.08;;;-0.35;83.44
69127;BME280;56688;50.234;19.292;2022-11-12T06:12:40;100141.41;;;-0.25;83.54
69127;BME280;56688;50.234;19.292;2022-11-12T06:15:22;100143.81;;;-0.14;83.61
69127;BME280;56688;50.234;19.292;2022-11-12T06:18:07;100144.68;;;-0.08;83.22
69127;BME280;56688;50.234;19.292;2022-11-12T06:20:50;100142.38;;;-0.07;82.58
69127;BME280;56688;50.234;19.292;2022-11-12T06:23:51;100144.99;;;-0.14;82.24
69127;BME280;56688;50.234;19.292;2022-11-12T06:26:33;100141.36;;;-0.14;82.18
69127;BME280;56688;50.234;19.292;2022-11-12T06:29:16;100146.26;;;-0.04;82.95
69127;BME280;56688;50.234;19.292;2022-11-12T06:31:58;100149.14;;;0.11;82.77
69127;BME280;56688;50.234;19.292;2022-11-12T06:34:41;100151.98;;;0.26;82.47
69127;BME280;56688;50.234;19.292;2022-11-12T06:37:24;100147.99;;;0.41;82.31
69127;BME280;56688;50.234;19.292;2022-11-12T06:40:06;100150.20;;;0.56;81.87
69127;BME280;56688;50.234;19.292;2022-11-12T06:42:55;100153.04;;;0.68;81.81
69127;BME280;56688;50.234;19.292;2022-11-12T06:45:37;100154.30;;;0.79;81.44
69127;BME280;56688;50.234;19.292;2022-11-12T06:48:19;100157.09;;;0.95;81.82
69127;BME280;56688;50.234;19.292;2022-11-12T06:51:16;100152.02;;;1.20;82.17
69127;BME280;56688;50.234;19.292;2022-11-12T06:53:58;100153.02;;;1.59;82.19
69127;BME280;56688;50.234;19.292;2022-11-12T06:56:41;100157.61;;;2.06;82.00
69127;BME280;56688;50.234;19.292;2022-11-12T06:59:23;100160.13;;;2.56;81.30
69127;BME280;56688;50.234;19.292;2022-11-12T07:02:05;100161.62;;;3.09;79.87
69127;BME280;56688;50.234;19.292;2022-11-12T07:04:47;100162.45;;;3.59;78.23
69127;BME280;56688;50.234;19.292;2022-11-12T07:07:30;100158.33;;;4.07;76.45
69127;BME280;56688;50.234;19.292;2022-11-12T07:10:12;100156.58;;;4.57;74.47
69127;BME280;56688;50.234;19.292;2022-11-12T07:12:54;100156.97;;;5.00;72.26
69127;BME280;56688;50.234;19.292;2022-11-12T07:15:37;100163.48;;;5.34;71.16
69127;BME280;56688;50.234;19.292;2022-11-12T07:18:19;100160.52;;;5.61;69.82
69127;BME280;56688;50.234;19.292;2022-11-12T07:21:05;100156.29;;;5.85;68.87
69127;BME280;56688;50.234;19.292;2022-11-12T07:23:48;100160.33;;;6.08;68.41
69127;BME280;56688;50.234;19.292;2022-11-12T07:26:30;100158.16;;;6.31;67.78
69127;BME280;56688;50.234;19.292;2022-11-12T07:29:12;100160.89;;;6.55;67.84
69127;BME280;56688;50.234;19.292;2022-11-12T07:32:11;100160.11;;;6.76;66.84
69127;BME280;56688;50.234;19.292;2022-11-12T07:34:53;100160.54;;;6.81;66.65
69127;BME280;56688;50.234;19.292;2022-11-12T07:37:36;100159.56;;;6.91;67.13
69127;BME280;56688;50.234;19.292;2022-11-12T07:40:18;100158.11;;;6.89;67.04
69127;BME280;56688;50.234;19.292;2022-11-12T07:43:00;100159.73;;;6.78;67.81
69127;BME280;56688;50.234;19.292;2022-11-12T07:45:43;100165.41;;;6.82;68.95
69127;BME280;56688;50.234;19.292;2022-11-12T07:48:26;100164.83;;;7.05;69.38
69127;BME280;56688;50.234;19.292;2022-11-12T07:51:13;100161.77;;;7.35;69.14
69127;BME280;56688;50.234;19.292;2022-11-12T07:53:57;100160.66;;;7.53;68.79
69127;BME280;56688;50.234;19.292;2022-11-12T07:56:41;100159.60;;;7.53;68.73
69127;BME280;56688;50.234;19.292;2022-11-12T07:59:23;100162.14;;;7.67;69.42
69127;BME280;56688;50.234;19.292;2022-11-12T08:02:07;100161.64;;;7.85;69.65
69127;BME280;56688;50.234;19.292;2022-11-12T08:04:50;100163.98;;;8.06;70.51
69127;BME280;56688;50.234;19.292;2022-11-12T08:07:33;100164.55;;;8.42;71.98
69127;BME280;56688;50.234;19.292;2022-11-12T08:10:16;100163.75;;;8.85;70.62
69127;BME280;56688;50.234;19.292;2022-11-12T08:12:58;100165.58;;;9.20;68.66
69127;BME280;56688;50.234;19.292;2022-11-12T08:15:40;100158.89;;;9.47;67.94
69127;BME280;56688;50.234;19.292;2022-11-12T08:18:23;100157.59;;;9.76;67.66
69127;BME280;56688;50.234;19.292;2022-11-12T08:21:10;100157.20;;;10.20;67.28
69127;BME280;56688;50.234;19.292;2022-11-12T08:23:52;100160.94;;;10.85;66.29
69127;BME280;56688;50.234;19.292;2022-11-12T08:26:35;100157.09;;;11.49;64.57
69127;BME280;56688;50.234;19.292;2022-11-12T08:29:17;100153.98;;;11.82;63.14
69127;BME280;56688;50.234;19.292;2022-11-12T08:31:59;100160.85;;;12.02;62.92
69127;BME280;56688;50.234;19.292;2022-11-12T08:34:41;100159.89;;;12.49;62.06
69127;BME280;56688;50.234;19.292;2022-11-12T08:37:24;100159.61;;;12.96;59.29
69127;BME280;56688;50.234;19.292;2022-11-12T08:40:07;100162.95;;;13.38;57.55
69127;BME280;56688;50.234;19.292;2022-11-12T08:43:07;100162.91;;;13.81;56.29
69127;BME280;56688;50.234;19.292;2022-11-12T08:45:50;100162.88;;;14.23;55.72
69127;BME280;56688;50.234;19.292;2022-11-12T08:48:33;100169.98;;;14.62;54.67
69127;BME280;56688;50.234;19.292;2022-11-12T08:51:16;100161.80;;;14.98;53.29
69127;BME280;56688;50.234;19.292;2022-11-12T08:53:58;100161.97;;;15.29;51.66
69127;BME280;56688;50.234;19.292;2022-11-12T08:56:41;100160.33;;;15.58;51.04
69127;BME280;56688;50.234;19.292;2022-11-12T08:59:23;100162.66;;;15.84;50.16
69127;BME280;56688;50.234;19.292;2022-11-12T09:02:11;100162.48;;;15.89;49.70
69127;BME280;56688;50.234;19.292;2022-11-12T09:04:53;100167.21;;;15.88;49.98
69127;BME280;56688;50.234;19.292;2022-11-12T09:07:36;100161.30;;;15.85;49.49
69127;BME280;56688;50.234;19.292;2022-11-12T09:10:34;100157.93;;;15.70;49.44
69127;BME280;56688;50.234;19.292;2022-11-12T09:13:17;100163.20;;;15.65;49.14
69127;BME280;56688;50.234;19.292;2022-11-12T09:16:01;100160.67;;;15.65;49.03
69127;BME280;56688;50.234;19.292;2022-11-12T09:18:44;100163.73;;;15.69;49.63
69127;BME280;56688;50.234;19.292;2022-11-12T09:21:27;100159.45;;;15.69;49.46
69127;BME280;56688;50.234;19.292;2022-11-12T09:24:09;100158.12;;;15.51;49.27
69127;BME280;56688;50.234;19.292;2022-11-12T09:26:52;100163.96;;;15.47;49.90
69127;BME280;56688;50.234;19.292;2022-11-12T09:29:35;100158.72;;;15.42;49.83
69127;BME280;56688;50.234;19.292;2022-11-12T09:32:17;100154.91;;;15.33;49.79
69127;BME280;56688;50.234;19.292;2022-11-12T09:34:59;100155.23;;;15.23;50.19
69127;BME280;56688;50.234;19.292;2022-11-12T09:37:42;100157.20;;;15.19;50.95
69127;BME280;56688;50.234;19.292;2022-11-12T09:40:36;100153.55;;;15.21;50.99
69127;BME280;56688;50.234;19.292;2022-11-12T09:43:32;100152.60;;;15.20;51.10
69127;BME280;56688;50.234;19.292;2022-11-12T09:49:20;100151.45;;;15.27;51.02
69127;BME280;56688;50.234;19.292;2022-11-12T09:52:05;100151.23;;;15.25;50.86
69127;BME280;56688;50.234;19.292;2022-11-12T09:55:11;100155.03;;;15.21;51.01
69127;BME280;56688;50.234;19.292;2022-11-12T09:57:57;100151.93;;;15.27;51.24
69127;BME280;56688;50.234;19.292;2022-11-12T10:00:48;100147.21;;;15.31;51.36
69127;BME280;56688;50.234;19.292;2022-11-12T10:06:31;100143.34;;;15.42;51.01
69127;BME280;56688;50.234;19.292;2022-11-12T10:09:18;100148.48;;;15.43;50.79
69127;BME280;56688;50.234;19.292;2022-11-12T10:12:07;100151.75;;;15.45;50.63
69127;BME280;56688;50.234;19.292;2022-11-12T10:24:19;100142.39;;;15.65;50.59
69127;BME280;56688;50.234;19.292;2022-11-12T10:30:03;100135.97;;;15.67;51.39
69127;BME280;56688;50.234;19.292;2022-11-12T10:32:47;100133.96;;;15.79;51.38
69127;BME280;56688;50.234;19.292;2022-11-12T10:35:29;100130.50;;;15.87;50.87
69127;BME280;56688;50.234;19.292;2022-11-12T10:38:16;100132.40;;;15.93;51.75
69127;BME280;56688;50.234;19.292;2022-11-12T10:41:17;100131.20;;;16.08;51.18
69127;BME280;56688;50.234;19.292;2022-11-12T10:44:02;100129.08;;;16.19;50.47
69127;BME280;56688;50.234;19.292;2022-11-12T10:46:44;100126.62;;;16.21;50.16
69127;BME280;56688;50.234;19.292;2022-11-12T10:49:27;100126.02;;;16.26;50.76
69127;BME280;56688;50.234;19.292;2022-11-12T10:52:20;100130.30;;;16.41;50.98
69127;BME280;56688;50.234;19.292;2022-11-12T10:55:19;100127.77;;;16.52;49.78
69127;BME280;56688;50.234;19.292;2022-11-12T11:01:02;100126.25;;;16.88;49.91
69127;BME280;56688;50.234;19.292;2022-11-12T11:03:56;100124.02;;;17.22;48.78
69127;BME280;56688;50.234;19.292;2022-11-12T11:06:39;100118.42;;;17.36;46.78
69127;BME280;56688;50.234;19.292;2022-11-12T11:09:22;100124.58;;;17.24;47.18
69127;BME280;56688;50.234;19.292;2022-11-12T11:12:22;100127.30;;;17.25;47.97
69127;BME280;56688;50.234;19.292;2022-11-12T11:15:17;100117.03;;;17.55;47.52
69127;BME280;56688;50.234;19.292;2022-11-12T11:18:00;100113.89;;;17.82;46.02
69127;BME280;56688;50.234;19.292;2022-11-12T11:20:46;100117.84;;;17.94;46.20
69127;BME280;56688;50.234;19.292;2022-11-12T11:50:08;100098.79;;;19.42;42.77
69127;BME280;56688;50.234;19.292;2022-11-12T11:53:15;100102.16;;;19.89;40.99
69127;BME280;56688;50.234;19.292;2022-11-12T11:56:08;100097.04;;;20.12;39.97
69127;BME280;56688;50.234;19.292;2022-11-12T11:59:14;100092.52;;;20.21;40.14
69127;BME280;56688;50.234;19.292;2022-11-12T12:04:48;100087.44;;;20.76;38.89
69127;BME280;56688;50.234;19.292;2022-11-12T12:10:52;100084.12;;;21.18;38.90
69127;BME280;56688;50.234;19.292;2022-11-12T12:22:59;100073.83;;;21.42;37.22
69127;BME280;56688;50.234;19.292;2022-11-12T12:25:43;100072.61;;;21.52;37.55
69127;BME280;56688;50.234;19.292;2022-11-12T12:28:43;100070.62;;;21.83;36.66
69127;BME280;56688;50.234;19.292;2022-11-12T12:31:31;100065.96;;;22.13;36.00
69127;BME280;56688;50.234;19.292;2022-11-12T12:34:31;100072.54;;;22.40;36.10
69127;BME280;56688;50.234;19.292;2022-11-12T12:37:23;100072.63;;;22.61;35.30
69127;BME280;56688;50.234;19.292;2022-11-12T12:40:17;100071.31;;;22.82;35.52
69127;BME280;56688;50.234;19.292;2022-11-12T12:43:07;100067.06;;;23.09;35.04
69127;BME280;56688;50.234;19.292;2022-11-12T12:45:52;100066.42;;;23.13;33.85
69127;BME280;56688;50.234;19.292;2022-11-12T12:48:39;100065.90;;;22.79;34.56
69127;BME280;56688;50.234;19.292;2022-11-12T12:51:23;100064.48;;;22.71;34.50
69127;BME280;56688;50.234;19.292;2022-11-12T12:57:38;100047.19;;;23.00;34.46
69127;BME280;56688;50.234;19.292;2022-11-12T13:00:30;100050.08;;;23.06;34.38
69127;BME280;56688;50.234;19.292;2022-11-12T13:06:34;100039.83;;;23.42;33.99
69127;BME280;56688;50.234;19.292;2022-11-12T13:12:00;100040.73;;;23.85;33.06
69127;BME280;56688;50.234;19.292;2022-11-12T13:14:52;100037.70;;;23.92;33.01
69127;BME280;56688;50.234;19.292;2022-11-12T13:17:45;100041.58;;;23.93;33.16
69127;BME280;56688;50.234;19.292;2022-11-12T13:20:34;100045.23;;;23.99;32.96
69127;BME280;56688;50.234;19.292;2022-11-12T13:23:42;100046.49;;;23.91;32.72
69127;BME280;56688;50.234;19.292;2022-11-12T13:26:45;100044.99;;;23.74;33.31
69127;BME280;56688;50.234;19.292;2022-11-12T13:32:28;100043.84;;;23.67;33.28
69127;BME280;56688;50.234;19.292;2022-11-12T13:38:10;100042.58;;;23.64;33.75
69127;BME280;56688;50.234;19.292;2022-11-12T13:43:52;100044.05;;;23.45;33.57
69127;BME280;56688;50.234;19.292;2022-11-12T13:46:37;100041.54;;;23.32;33.61
69127;BME280;56688;50.234;19.292;2022-11-12T13:49:19;100050.27;;;23.07;33.80
69127;BME280;56688;50.234;19.292;2022-11-12T13:52:12;100050.25;;;22.73;34.57
69127;BME280;56688;50.234;19.292;2022-11-12T13:55:12;100047.15;;;22.36;35.02
69127;BME280;56688;50.234;19.292;2022-11-12T13:57:55;100039.77;;;21.91;35.48
69127;BME280;56688;50.234;19.292;2022-11-12T14:00:39;100039.29;;;21.36;36.52
69127;BME280;56688;50.234;19.292;2022-11-12T14:03:27;100037.70;;;20.75;37.46
69127;BME280;56688;50.234;19.292;2022-11-12T14:12:09;100041.13;;;18.32;42.03
69127;BME280;56688;50.234;19.292;2022-11-12T14:15:07;100035.31;;;17.28;44.56
69127;BME280;56688;50.234;19.292;2022-11-12T14:21:15;100037.81;;;15.54;48.61
69127;BME280;56688;50.234;19.292;2022-11-12T14:24:00;100041.31;;;14.85;50.59
69127;BME280;56688;50.234;19.292;2022-11-12T14:26:45;100042.08;;;14.31;52.09
69127;BME280;56688;50.234;19.292;2022-11-12T14:29:27;100046.69;;;14.03;52.73
69127;BME280;56688;50.234;19.292;2022-11-12T14:32:17;100053.34;;;13.71;53.47
69127;BME280;56688;50.234;19.292;2022-11-12T14:34:59;100044.34;;;13.33;54.67
69127;BME280;56688;50.234;19.292;2022-11-12T14:37:47;100038.27;;;12.95;55.94
69127;BME280;56688;50.234;19.292;2022-11-12T14:40:35;100044.09;;;12.59;57.18
69127;BME280;56688;50.234;19.292;2022-11-12T14:43:20;100038.55;;;12.34;57.36
69127;BME280;56688;50.234;19.292;2022-11-12T14:46:21;100036.71;;;12.11;57.61
69127;BME280;56688;50.234;19.292;2022-11-12T14:49:11;100038.36;;;11.81;58.38
69127;BME280;56688;50.234;19.292;2022-11-12T14:52:05;100039.29;;;11.51;58.84
69127;BME280;56688;50.234;19.292;2022-11-12T14:54:51;100034.46;;;11.13;60.11
69127;BME280;56688;50.234;19.292;2022-11-12T14:57:36;100037.77;;;10.69;61.31
69127;BME280;56688;50.234;19.292;2022-11-12T15:00:35;100042.02;;;10.36;61.54
69127;BME280;56688;50.234;19.292;2022-11-12T15:03:22;100042.44;;;10.10;61.48
69127;BME280;56688;50.234;19.292;2022-11-12T15:08:56;100051.07;;;9.60;62.83
69127;BME280;56688;50.234;19.292;2022-11-12T15:11:44;100051.67;;;9.37;63.45
69127;BME280;56688;50.234;19.292;2022-11-12T15:14:28;100049.98;;;9.15;63.93
69127;BME280;56688;50.234;19.292;2022-11-12T15:17:29;100050.13;;;8.98;64.26
69127;BME280;56688;50.234;19.292;2022-11-12T15:20:15;100047.89;;;8.76;64.14
69127;BME280;56688;50.234;19.292;2022-11-12T15:22:58;100053.42;;;8.56;64.49
69127;BME280;56688;50.234;19.292;2022-11-12T15:25:44;100048.95;;;8.34;65.02
69127;BME280;56688;50.234;19.292;2022-11-12T15:28:27;100045.27;;;8.15;65.24
69127;BME280;56688;50.234;19.292;2022-11-12T15:31:25;100051.43;;;7.96;64.96
69127;BME280;56688;50.234;19.292;2022-11-12T15:37:18;100052.20;;;7.48;66.88
69127;BME280;56688;50.234;19.292;2022-11-12T15:40:11;100048.43;;;7.26;67.40
69127;BME280;56688;50.234;19.292;2022-11-12T15:42:58;100055.79;;;7.06;67.52
69127;BME280;56688;50.234;19.292;2022-11-12T15:45:42;100051.54;;;6.88;67.63
69127;BME280;56688;50.234;19.292;2022-11-12T15:51:25;100050.13;;;6.60;67.92
69127;BME280;56688;50.234;19.292;2022-11-12T15:54:07;100055.05;;;6.48;68.34
69127;BME280;56688;50.234;19.292;2022-11-12T15:56:50;100054.59;;;6.32;68.18
69127;BME280;56688;50.234;19.292;2022-11-12T15:59:32;100057.83;;;6.18;68.21
69127;BME280;56688;50.234;19.292;2022-11-12T16:02:15;100069.08;;;6.03;69.18